New Point, Virginia
Current Conditions -  °F | °C
As of 10:58 PM on Saturday 22 Nov 2014 (Local Time) from KLFI Reporting Station
Clear Clear  
Wind Chill: 36°   Ceiling: Unl
Heat Index: 39°   Visibility: 10mi
Dew Point: 27°   Wind: 5mph
Humidity: 62%   Direction: 190°S
Pressure: 30.36"   Gusts: NA
Location:  37.35°N, 76.28°W
Report Text: KLFI 230358Z AUTO 19004KT 10SM CLR 04/M03 A3036 RMK AO2 SLP288 T00391029 $
Loading
Personal Weather Stations






























Interactive Weather Map New forecast layout! Learn more

10-Day Weather Forecast

Advertisements
Track Severe Weather on mobile